createdAt,value
2023-05-01T00:02:31.899Z,95551.34
2023-05-01T00:05:18.162Z,95558.50
2023-05-01T00:08:05.119Z,95559.28
2023-05-01T00:10:51.594Z,95552.47
2023-05-01T00:13:38.726Z,95552.47
2023-05-01T00:16:24.804Z,95552.63
2023-05-01T00:19:12.840Z,95554.91
2023-05-01T00:21:58.663Z,95550.13
2023-05-01T00:24:44.648Z,95534.66
2023-05-01T00:27:30.652Z,95548.25
2023-05-01T00:30:16.803Z,95547.13
2023-05-01T00:33:03.249Z,95552.44
2023-05-01T00:35:49.240Z,95539.19
2023-05-01T00:38:35.495Z,95561.38
2023-05-01T00:41:21.522Z,95556.47
2023-05-01T00:44:07.499Z,95567.16
2023-05-01T00:46:54.221Z,95556.94
2023-05-01T00:49:42.884Z,95560.13
2023-05-01T00:52:28.817Z,95568.47
2023-05-01T00:55:15.588Z,95570.81
2023-05-01T00:58:02.351Z,95573.25
2023-05-01T01:00:49.644Z,95576.09
2023-05-01T01:03:35.534Z,95572.94
2023-05-01T01:06:45.551Z,95569.91
2023-05-01T01:09:47.657Z,95579.03
2023-05-01T01:12:44.322Z,95578.38
2023-05-01T01:15:51.404Z,95566.25
2023-05-01T01:18:46.728Z,95574.88
2023-05-01T01:21:39.841Z,95580.28
2023-05-01T01:25:06.684Z,95586.66
2023-05-01T01:28:30.994Z,95585.72
2023-05-01T01:31:20.322Z,95583.16
2023-05-01T01:34:15.453Z,95581.25
2023-05-01T01:37:24.264Z,95583.63
2023-05-01T01:40:19.574Z,95577.06
2023-05-01T01:43:08.700Z,95583.47
2023-05-01T01:46:00.781Z,95578.19
2023-05-01T01:48:49.467Z,95585.69
2023-05-01T01:51:36.355Z,95581.38
2023-05-01T01:54:31.698Z,95575.94
2023-05-01T01:57:22.120Z,95562.88
2023-05-01T02:00:11.729Z,95569.72
2023-05-01T02:03:04.130Z,95565.59
2023-05-01T02:05:52.747Z,95565.25
2023-05-01T02:08:38.854Z,95557.59
2023-05-01T02:11:25.314Z,95561.72
2023-05-01T02:14:13.502Z,95568.41
2023-05-01T02:16:59.797Z,95562.03
2023-05-01T02:19:47.182Z,95543.31
2023-05-01T02:22:33.789Z,95570.72
2023-05-01T02:25:19.822Z,95574.72
2023-05-01T02:28:16.268Z,95573.41
2023-05-01T02:31:02.308Z,95568.78
2023-05-01T02:33:48.089Z,95563.69
2023-05-01T02:36:34.162Z,95575.63
2023-05-01T02:39:20.182Z,95570.03
2023-05-01T02:42:09.643Z,95579.25
2023-05-01T02:44:58.734Z,95579.72
2023-05-01T02:47:46.426Z,95580.53
2023-05-01T02:50:34.712Z,95572.38
2023-05-01T02:53:20.677Z,95578.41
2023-05-01T02:56:09.688Z,95576.94
2023-05-01T02:58:56.176Z,95577.06
2023-05-01T03:01:42.288Z,95586.28
2023-05-01T03:04:28.416Z,95568.22
2023-05-01T03:07:14.695Z,95584.34
2023-05-01T03:10:04.302Z,95590.97
2023-05-01T03:12:50.757Z,95586.31
2023-05-01T03:15:38.055Z,95589.63
2023-05-01T03:18:24.240Z,95583.88
2023-05-01T03:21:10.336Z,95586.84
2023-05-01T03:23:56.798Z,95584.88
2023-05-01T03:26:42.442Z,95583.03
2023-05-01T03:29:28.410Z,95582.22
2023-05-01T03:32:16.561Z,95589.03
2023-05-01T03:35:03.374Z,95574.06
2023-05-01T03:37:49.694Z,95583.88
2023-05-01T03:40:55.810Z,95574.59
2023-05-01T03:44:01.649Z,95592.59
2023-05-01T03:47:03.012Z,95591.50
2023-05-01T03:49:49.505Z,95591.97
2023-05-01T03:52:35.510Z,95571.09
2023-05-01T03:55:22.213Z,95598.38
2023-05-01T03:58:10.755Z,95596.78
2023-05-01T04:01:00.829Z,95598.50
2023-05-01T04:03:47.068Z,95593.28
2023-05-01T04:06:33.579Z,95588.78
2023-05-01T04:09:19.720Z,95593.09
2023-05-01T04:12:06.458Z,95590.28
2023-05-01T04:14:52.497Z,95608.09
2023-05-01T04:17:39.135Z,95593.78
2023-05-01T04:20:25.105Z,95609.06
2023-05-01T04:23:12.775Z,95603.06
2023-05-01T04:25:58.869Z,95604.66
2023-05-01T04:28:44.840Z,95607.06
2023-05-01T04:31:33.310Z,95613.88
2023-05-01T04:34:19.772Z,95611.06
2023-05-01T04:37:07.704Z,95608.81
2023-05-01T04:39:55.908Z,95608.81
2023-05-01T04:42:43.526Z,95617.06
2023-05-01T04:45:32.980Z,95624.25
2023-05-01T04:48:19.249Z,95615.34
2023-05-01T04:51:05.308Z,95623.03
2023-05-01T04:53:53.738Z,95608.22
2023-05-01T04:56:42.582Z,95620.69
2023-05-01T04:59:28.159Z,95623.00
2023-05-01T05:02:15.190Z,95633.19
2023-05-01T05:05:01.109Z,95628.88
2023-05-01T05:07:48.057Z,95638.28
2023-05-01T05:11:00.087Z,95637.97
2023-05-01T05:13:53.698Z,95641.78
2023-05-01T05:16:39.732Z,95644.38
2023-05-01T05:19:25.451Z,95644.56
2023-05-01T05:22:12.744Z,95635.53
2023-05-01T05:25:18.761Z,95634.09
2023-05-01T05:28:04.984Z,95622.78
2023-05-01T05:30:51.420Z,95637.06
2023-05-01T05:33:39.668Z,95636.25
2023-05-01T05:36:27.754Z,95641.41
2023-05-01T05:39:14.344Z,95643.97
2023-05-01T05:42:00.393Z,95642.13
2023-05-01T05:44:46.945Z,95643.88
2023-05-01T05:47:32.708Z,95648.09
2023-05-01T05:50:19.542Z,95646.63
2023-05-01T05:53:06.484Z,95647.00
2023-05-01T05:55:53.116Z,95640.94
2023-05-01T05:58:39.176Z,95641.94
2023-05-01T06:01:25.686Z,95646.31
2023-05-01T06:04:12.004Z,95651.28
2023-05-01T06:07:00.429Z,95654.63
2023-05-01T06:09:47.275Z,95642.88
2023-05-01T06:12:35.224Z,95657.72
2023-05-01T06:15:25.016Z,95647.03
2023-05-01T06:18:13.713Z,95645.94
2023-05-01T06:21:00.206Z,95653.94
2023-05-01T06:23:46.515Z,95651.88
2023-05-01T06:26:44.539Z,95645.19
2023-05-01T06:29:31.108Z,95642.00
2023-05-01T06:32:18.520Z,95653.19
2023-05-01T06:35:42.112Z,95644.91
2023-05-01T06:38:36.837Z,95645.69
2023-05-01T06:41:23.998Z,95647.63
2023-05-01T06:44:11.619Z,95651.16
2023-05-01T06:47:04.978Z,95646.50
2023-05-01T06:49:51.636Z,95642.19
2023-05-01T06:52:37.693Z,95638.66
2023-05-01T06:55:25.921Z,95635.03
2023-05-01T06:58:22.506Z,95637.44
2023-05-01T07:01:10.289Z,95635.19
2023-05-01T07:03:57.089Z,95625.16
2023-05-01T07:06:46.101Z,95645.84
2023-05-01T07:09:32.283Z,95621.44
2023-05-01T07:12:17.998Z,95632.94
2023-05-01T07:15:04.331Z,95625.25
2023-05-01T07:17:53.253Z,95638.50
2023-05-01T07:20:45.986Z,95639.91
2023-05-01T07:23:33.397Z,95637.84
2023-05-01T07:26:32.193Z,95580.25
2023-05-01T07:29:50.473Z,95583.09
2023-05-01T07:32:39.498Z,95652.44
2023-05-01T07:35:25.622Z,95646.19
2023-05-01T07:38:12.288Z,95632.59
2023-05-01T07:40:58.484Z,95636.06
2023-05-01T07:43:44.648Z,95640.53
2023-05-01T07:46:30.947Z,95642.91
2023-05-01T07:49:16.878Z,95642.84
2023-05-01T07:52:02.607Z,95639.84
2023-05-01T07:54:52.073Z,95639.94
2023-05-01T07:57:38.754Z,95638.78
2023-05-01T08:00:24.959Z,95632.69
2023-05-01T08:03:12.501Z,95646.38
2023-05-01T08:05:59.171Z,95634.50
2023-05-01T08:08:45.225Z,95632.72
2023-05-01T08:11:31.858Z,95631.41
2023-05-01T08:14:18.502Z,95629.25
2023-05-01T08:17:04.327Z,95627.50
2023-05-01T08:19:50.399Z,95630.59
2023-05-01T08:22:36.333Z,95634.69
2023-05-01T08:25:22.502Z,95621.09
2023-05-01T08:28:08.514Z,95617.53
2023-05-01T08:30:54.508Z,95617.31
2023-05-01T08:33:44.557Z,95627.78
2023-05-01T08:36:33.109Z,95616.03
2023-05-01T08:39:19.041Z,95615.81
2023-05-01T08:42:04.776Z,95603.31
2023-05-01T08:44:51.332Z,95608.38
2023-05-01T08:47:41.284Z,95613.38
2023-05-01T08:50:27.833Z,95611.81
2023-05-01T08:53:16.139Z,95613.44
2023-05-01T08:56:06.589Z,95613.69
2023-05-01T08:58:54.001Z,95601.44
2023-05-01T09:01:41.598Z,95602.56
2023-05-01T09:04:32.318Z,95612.34
2023-05-01T09:07:18.231Z,95613.50
2023-05-01T09:10:04.735Z,95604.97
2023-05-01T09:12:58.564Z,95604.19
2023-05-01T09:15:44.692Z,95614.66
2023-05-01T09:18:31.428Z,95588.50
2023-05-01T09:21:17.742Z,95601.41
2023-05-01T09:24:04.181Z,95593.00
2023-05-01T09:26:50.186Z,95600.25
2023-05-01T09:29:43.322Z,95604.09
2023-05-01T09:32:29.344Z,95592.22
2023-05-01T09:35:18.093Z,95590.84
2023-05-01T09:38:04.134Z,95585.25
2023-05-01T09:40:50.799Z,95586.31
2023-05-01T09:43:36.511Z,95583.47
2023-05-01T09:46:24.618Z,95574.69
2023-05-01T09:49:10.667Z,95587.03
2023-05-01T09:52:11.429Z,95573.44
2023-05-01T09:55:17.527Z,95574.91
2023-05-01T09:58:03.736Z,95566.06
2023-05-01T10:00:50.065Z,95567.38
2023-05-01T10:03:37.557Z,95571.97
2023-05-01T10:06:28.661Z,95563.53
2023-05-01T10:09:28.670Z,95559.09
2023-05-01T10:12:24.293Z,95556.53
2023-05-01T10:15:23.969Z,95557.88
2023-05-01T10:18:12.854Z,95557.06
2023-05-01T10:20:58.946Z,95546.28
2023-05-01T10:23:45.006Z,95543.84
2023-05-01T10:26:32.642Z,95547.22
2023-05-01T10:29:21.290Z,95543.47
2023-05-01T10:32:08.632Z,95544.47
2023-05-01T10:35:01.150Z,95546.66
2023-05-01T10:38:03.167Z,95537.84
2023-05-01T10:40:50.479Z,95536.22
2023-05-01T10:43:36.611Z,95535.91
2023-05-01T10:46:24.298Z,95526.75
2023-05-01T10:49:10.007Z,95530.47
2023-05-01T10:51:59.885Z,95531.78
2023-05-01T10:54:46.022Z,95520.44
2023-05-01T10:57:50.205Z,95521.28
2023-05-01T11:00:36.254Z,95519.50
2023-05-01T11:03:22.022Z,95522.00
2023-05-01T11:06:08.457Z,95518.25
2023-05-01T11:08:55.035Z,95504.94
2023-05-01T11:11:44.051Z,95516.09
2023-05-01T11:15:08.893Z,95516.59
2023-05-01T11:17:56.031Z,95521.03
2023-05-01T11:20:49.156Z,95507.84
2023-05-01T11:23:34.859Z,95498.13
2023-05-01T11:26:23.276Z,95503.09
2023-05-01T11:29:10.648Z,95486.38
2023-05-01T11:31:56.584Z,95486.25
2023-05-01T11:34:42.820Z,95506.94
2023-05-01T11:37:44.694Z,95487.84
2023-05-01T11:40:32.217Z,95494.25
2023-05-01T11:43:18.371Z,95493.56
2023-05-01T11:46:04.491Z,95478.75
2023-05-01T11:48:57.165Z,95478.84
2023-05-01T11:51:42.921Z,95476.66
2023-05-01T11:54:34.073Z,95486.91
2023-05-01T11:57:21.546Z,95482.25
2023-05-01T12:00:08.872Z,95463.81
2023-05-01T12:03:02.006Z,95467.09
2023-05-01T12:05:49.259Z,95465.94
2023-05-01T12:08:35.045Z,95466.44
2023-05-01T12:11:21.342Z,95457.91
2023-05-01T12:14:07.757Z,95461.53
2023-05-01T12:16:54.209Z,95462.81
2023-05-01T12:19:49.175Z,95455.38
2023-05-01T12:22:34.993Z,95459.31
2023-05-01T12:25:21.071Z,95458.56
2023-05-01T12:28:15.612Z,95454.63
2023-05-01T12:31:05.156Z,95441.25
2023-05-01T12:33:58.989Z,95442.09
2023-05-01T12:36:53.446Z,95450.78
2023-05-01T12:39:42.453Z,95441.38
2023-05-01T12:42:28.529Z,95439.03
2023-05-01T12:45:15.780Z,95443.00
2023-05-01T12:48:01.789Z,95444.59
2023-05-01T12:50:54.452Z,95430.00
2023-05-01T12:53:44.122Z,95419.41
2023-05-01T12:56:30.105Z,95432.38
2023-05-01T12:59:27.463Z,95420.84
2023-05-01T13:02:16.342Z,95431.78
2023-05-01T13:05:12.173Z,95415.50
2023-05-01T13:07:59.064Z,95427.63
2023-05-01T13:10:45.241Z,95417.22
2023-05-01T13:13:33.731Z,95418.63
2023-05-01T13:16:20.401Z,95424.03
2023-05-01T13:19:06.272Z,95415.16
2023-05-01T13:21:52.791Z,95406.31
2023-05-01T13:24:42.824Z,95407.38
2023-05-01T13:27:29.048Z,95410.09
2023-05-01T13:30:15.950Z,95411.47
2023-05-01T13:33:02.172Z,95397.72
2023-05-01T13:35:48.320Z,95390.16
2023-05-01T13:38:43.791Z,95394.03
2023-05-01T13:41:30.665Z,95405.78
2023-05-01T13:44:17.982Z,95400.06
2023-05-01T13:47:03.876Z,95389.00
2023-05-01T13:49:49.617Z,95396.84
2023-05-01T13:52:42.652Z,95392.88
2023-05-01T13:55:32.791Z,95393.50
2023-05-01T13:58:18.882Z,95397.47
2023-05-01T14:01:11.575Z,95395.50
2023-05-01T14:04:00.562Z,95399.41
2023-05-01T14:06:49.162Z,95389.69
2023-05-01T14:09:36.156Z,95383.84
2023-05-01T14:12:32.394Z,95376.84
2023-05-01T14:15:18.657Z,95378.56
2023-05-01T14:18:05.831Z,95385.78
2023-05-01T14:20:51.796Z,95382.50
2023-05-01T14:23:42.228Z,95375.19
2023-05-01T14:26:28.422Z,95375.00
2023-05-01T14:29:32.508Z,95376.38
2023-05-01T14:32:18.267Z,95385.56
2023-05-01T14:35:09.241Z,95381.72
2023-05-01T14:37:55.602Z,95382.22
2023-05-01T14:40:42.198Z,95387.75
2023-05-01T14:43:28.303Z,95377.53
2023-05-01T14:46:16.231Z,95380.75
2023-05-01T14:49:03.097Z,95384.72
2023-05-01T14:51:49.513Z,95381.94
2023-05-01T14:54:46.378Z,95387.44
2023-05-01T14:57:32.540Z,95383.88
2023-05-01T15:00:19.161Z,95385.41
2023-05-01T15:03:05.142Z,95375.91
2023-05-01T15:05:51.082Z,95381.00
2023-05-01T15:08:38.319Z,95376.59
2023-05-01T15:11:24.094Z,95372.22
2023-05-01T15:14:09.947Z,95378.91
2023-05-01T15:16:56.019Z,95379.72
2023-05-01T15:19:41.869Z,95380.47
2023-05-01T15:22:27.862Z,95385.56
2023-05-01T15:25:14.796Z,95376.38
2023-05-01T15:28:00.925Z,95373.97
2023-05-01T15:30:47.574Z,95375.50
2023-05-01T15:33:33.530Z,95375.44
2023-05-01T15:36:19.394Z,95382.09
2023-05-01T15:39:11.213Z,95394.22
2023-05-01T15:41:57.094Z,95396.88
2023-05-01T15:44:43.098Z,95389.31
2023-05-01T15:47:29.205Z,95393.16
2023-05-01T15:50:15.804Z,95402.56
2023-05-01T15:53:01.935Z,95393.09
2023-05-01T15:55:48.273Z,95395.44
2023-05-01T15:58:34.154Z,95390.69
2023-05-01T16:01:20.237Z,95385.97
2023-05-01T16:04:06.556Z,95398.81
2023-05-01T16:06:52.760Z,95396.81
2023-05-01T16:09:38.898Z,95396.34
2023-05-01T16:12:25.521Z,95391.19
2023-05-01T16:15:12.281Z,95381.63
2023-05-01T16:17:58.634Z,95404.44
2023-05-01T16:20:44.448Z,95405.47
2023-05-01T16:23:30.150Z,95411.34
2023-05-01T16:26:22.109Z,95407.34
2023-05-01T16:29:08.339Z,95417.44
2023-05-01T16:31:54.169Z,95415.72
2023-05-01T16:34:42.772Z,95419.66
2023-05-01T16:37:28.944Z,95420.34
2023-05-01T16:40:18.506Z,95426.97
2023-05-01T16:43:04.761Z,95423.38
2023-05-01T16:45:54.170Z,95416.25
2023-05-01T16:48:40.775Z,95429.53
2023-05-01T16:51:26.616Z,95423.09
2023-05-01T16:54:12.617Z,95422.25
2023-05-01T16:56:59.434Z,95422.16
2023-05-01T16:59:46.484Z,95421.19
2023-05-01T17:02:34.460Z,95416.75
2023-05-01T17:05:20.622Z,95420.97
2023-05-01T17:08:06.821Z,95419.63
2023-05-01T17:10:52.778Z,95417.88
2023-05-01T17:13:38.615Z,95428.78
2023-05-01T17:16:24.494Z,95441.66
2023-05-01T17:19:10.842Z,95439.91
2023-05-01T17:21:58.229Z,95452.31
2023-05-01T17:24:44.105Z,95450.59
2023-05-01T17:27:31.035Z,95458.38
2023-05-01T17:30:18.532Z,95467.66
2023-05-01T17:33:04.852Z,95461.03
2023-05-01T17:35:51.915Z,95470.38
2023-05-01T17:38:38.918Z,95477.28
2023-05-01T17:41:24.866Z,95475.13
2023-05-01T17:44:11.006Z,95501.69
2023-05-01T17:46:56.884Z,95504.59
2023-05-01T17:49:42.739Z,95497.72
2023-05-01T17:52:29.488Z,95507.84
2023-05-01T17:55:18.060Z,95505.25
2023-05-01T17:58:04.457Z,95504.72
2023-05-01T18:00:50.781Z,95508.81
2023-05-01T18:03:36.855Z,95512.66
2023-05-01T18:06:23.129Z,95510.22
2023-05-01T18:09:10.588Z,95503.72
2023-05-01T18:11:56.922Z,95517.38
2023-05-01T18:14:42.991Z,95521.53
2023-05-01T18:17:28.903Z,95510.41
2023-05-01T18:20:15.139Z,95520.47
2023-05-01T18:23:02.011Z,95526.66
2023-05-01T18:25:48.156Z,95521.91
2023-05-01T18:28:34.690Z,95458.22
2023-05-01T18:31:20.832Z,95512.38
2023-05-01T18:34:07.416Z,95526.91
2023-05-01T18:36:54.705Z,95525.06
2023-05-01T18:39:40.763Z,95534.50
2023-05-01T18:42:26.612Z,95539.63
2023-05-01T18:45:14.234Z,95539.25
2023-05-01T18:48:00.836Z,95531.41
2023-05-01T18:50:51.441Z,95538.47
2023-05-01T18:53:40.847Z,95543.94
2023-05-01T18:56:28.176Z,95549.41
2023-05-01T18:59:14.470Z,95545.44
2023-05-01T19:02:01.678Z,95550.84
2023-05-01T19:07:36.926Z,95551.97
2023-05-01T19:10:23.173Z,95556.09
2023-05-01T19:13:08.945Z,95561.16
2023-05-01T19:15:55.020Z,95554.34
2023-05-01T19:18:40.846Z,95557.78
2023-05-01T19:21:27.998Z,95564.38
2023-05-01T19:24:13.758Z,95566.50
2023-05-01T19:26:59.553Z,95582.91
2023-05-01T19:29:45.546Z,95575.66
2023-05-01T19:32:31.590Z,95579.88
2023-05-01T19:35:17.653Z,95581.38
2023-05-01T19:38:03.689Z,95583.91
2023-05-01T19:40:49.526Z,95577.53
2023-05-01T19:43:35.428Z,95587.69
2023-05-01T19:46:21.150Z,95578.94
2023-05-01T19:49:06.940Z,95575.22
2023-05-01T19:51:54.184Z,95588.06
2023-05-01T19:54:40.388Z,95584.72
2023-05-01T19:57:26.380Z,95579.72
2023-05-01T20:00:12.408Z,95582.00
2023-05-01T20:03:00.455Z,95584.97
2023-05-01T20:05:46.781Z,95585.66
2023-05-01T20:08:33.763Z,95585.22
2023-05-01T20:11:19.700Z,95576.13
2023-05-01T20:14:06.114Z,95571.34
2023-05-01T20:16:53.158Z,95576.94
2023-05-01T20:19:39.944Z,95576.13
2023-05-01T20:22:26.118Z,95570.69
2023-05-01T20:25:12.382Z,95570.56
2023-05-01T20:27:58.175Z,95564.78
2023-05-01T20:30:45.807Z,95567.44
2023-05-01T20:33:32.531Z,95583.91
2023-05-01T20:36:18.426Z,95567.78
2023-05-01T20:39:04.793Z,95579.91
2023-05-01T20:41:50.716Z,95578.25
2023-05-01T20:44:36.691Z,95585.28
2023-05-01T20:47:22.666Z,95568.25
2023-05-01T20:50:08.758Z,95572.56
2023-05-01T20:52:55.337Z,95585.31
2023-05-01T20:55:41.432Z,95575.75
2023-05-01T20:58:27.529Z,95577.25
2023-05-01T21:01:13.399Z,95582.56
2023-05-01T21:04:00.099Z,95584.84
2023-05-01T21:06:46.361Z,95581.22
2023-05-01T21:09:42.630Z,95576.66
2023-05-01T21:12:29.030Z,95570.66
2023-05-01T21:15:15.529Z,95585.19
2023-05-01T21:18:01.568Z,95568.94
2023-05-01T21:20:48.889Z,95566.44
2023-05-01T21:23:34.967Z,95578.59
2023-05-01T21:26:21.421Z,95580.09
2023-05-01T21:29:07.699Z,95584.63
2023-05-01T21:31:53.524Z,95576.22
2023-05-01T21:34:39.373Z,95571.78
2023-05-01T21:37:25.427Z,95578.03
2023-05-01T21:40:13.809Z,95555.75
2023-05-01T21:43:00.469Z,95566.91
2023-05-01T21:45:46.342Z,95565.41
2023-05-01T21:48:33.198Z,95558.25
2023-05-01T21:51:19.336Z,95552.47
2023-05-01T21:54:05.330Z,95568.94
2023-05-01T21:56:51.665Z,95563.03
2023-05-01T21:59:38.587Z,95567.56
2023-05-01T22:02:27.639Z,95582.56
2023-05-01T22:05:15.277Z,95570.09
2023-05-01T22:08:01.238Z,95565.97
2023-05-01T22:10:47.101Z,95569.97
2023-05-01T22:13:33.770Z,95565.31
2023-05-01T22:16:20.978Z,95571.44
2023-05-01T22:19:07.137Z,95562.78
2023-05-01T22:21:52.850Z,95566.09
2023-05-01T22:24:38.589Z,95563.25
2023-05-01T22:27:24.511Z,95572.22
2023-05-01T22:30:11.236Z,95569.38
2023-05-01T22:32:57.225Z,95567.91
2023-05-01T22:35:43.481Z,95564.72
2023-05-01T22:38:29.185Z,95553.94
2023-05-01T22:41:15.316Z,95547.56
2023-05-01T22:44:01.583Z,95559.38
2023-05-01T22:46:47.598Z,95576.19
2023-05-01T22:49:33.688Z,95570.94
2023-05-01T22:52:19.358Z,95571.53
2023-05-01T22:55:05.632Z,95581.63
2023-05-01T22:57:51.404Z,95579.81
2023-05-01T23:00:37.244Z,95580.78
2023-05-01T23:03:23.209Z,95574.09
2023-05-01T23:06:09.186Z,95574.78
2023-05-01T23:08:55.070Z,95569.19
2023-05-01T23:11:41.411Z,95568.25
2023-05-01T23:14:27.211Z,95563.50
2023-05-01T23:17:14.762Z,95575.19
2023-05-01T23:20:11.609Z,95569.94
2023-05-01T23:22:57.632Z,95576.50
2023-05-01T23:25:51.991Z,95565.47
2023-05-01T23:28:43.150Z,95568.56
2023-05-01T23:31:29.346Z,95569.09
2023-05-01T23:34:17.393Z,95552.38
2023-05-01T23:37:03.277Z,95567.41
2023-05-01T23:39:49.464Z,95555.56
2023-05-01T23:42:37.754Z,95565.00
2023-05-01T23:45:23.575Z,95570.44
2023-05-01T23:48:09.418Z,95565.66
2023-05-01T23:50:55.647Z,95561.69
2023-05-01T23:53:41.630Z,95558.50
2023-05-01T23:56:28.769Z,95564.72
2023-05-01T23:59:15.139Z,95559.19
